sensor_id;sensor_type;location;lat;lon;timestamp;pressure;altitude;pressure_sealevel;temperature;humidity
22653;BME280;11493;43.344;26.226;2024-03-29T00:01:43;98874.34;;;9.23;100.00
22653;BME280;11493;43.344;26.226;2024-03-29T00:04:09;98884.06;;;9.29;100.00
22653;BME280;11493;43.344;26.226;2024-03-29T00:06:35;98846.03;;;9.05;100.00
22653;BME280;11493;43.344;26.226;2024-03-29T00:09:01;98873.41;;;9.28;100.00
22653;BME280;11493;43.344;26.226;2024-03-29T00:11:27;98868.38;;;9.21;100.00
22653;BME280;11493;43.344;26.226;2024-03-29T00:13:56;98868.97;;;9.09;100.00
22653;BME280;11493;43.344;26.226;2024-03-29T00:16:24;98869.97;;;9.13;100.00
22653;BME280;11493;43.344;26.226;2024-03-29T00:18:52;98879.44;;;9.07;100.00
22653;BME280;11493;43.344;26.226;2024-03-29T00:21:18;98887.94;;;8.97;100.00
22653;BME280;11493;43.344;26.226;2024-03-29T00:23:44;98890.50;;;8.94;100.00
22653;BME280;11493;43.344;26.226;2024-03-29T00:26:11;98887.78;;;8.94;100.00
22653;BME280;11493;43.344;26.226;2024-03-29T00:28:38;98889.88;;;8.88;100.00
22653;BME280;11493;43.344;26.226;2024-03-29T00:31:04;98884.88;;;8.90;100.00
22653;BME280;11493;43.344;26.226;2024-03-29T00:33:30;98883.66;;;8.74;100.00
22653;BME280;11493;43.344;26.226;2024-03-29T00:35:56;98856.34;;;8.69;100.00
22653;BME280;11493;43.344;26.226;2024-03-29T00:38:22;98880.09;;;8.73;100.00
22653;BME280;11493;43.344;26.226;2024-03-29T00:40:48;98886.38;;;8.74;100.00
22653;BME280;11493;43.344;26.226;2024-03-29T00:43:15;98894.63;;;8.74;100.00
22653;BME280;11493;43.344;26.226;2024-03-29T00:45:41;98893.81;;;8.73;100.00
22653;BME280;11493;43.344;26.226;2024-03-29T00:48:07;98906.53;;;8.69;100.00
22653;BME280;11493;43.344;26.226;2024-03-29T00:50:33;98906.22;;;8.71;100.00
22653;BME280;11493;43.344;26.226;2024-03-29T00:52:59;98883.03;;;8.54;100.00
22653;BME280;11493;43.344;26.226;2024-03-29T00:55:25;98915.06;;;8.68;100.00
22653;BME280;11493;43.344;26.226;2024-03-29T00:57:51;98911.47;;;8.59;100.00
22653;BME280;11493;43.344;26.226;2024-03-29T01:00:17;98917.38;;;8.52;100.00
22653;BME280;11493;43.344;26.226;2024-03-29T01:02:43;98903.09;;;8.41;100.00
22653;BME280;11493;43.344;26.226;2024-03-29T01:05:09;98919.25;;;8.43;100.00
22653;BME280;11493;43.344;26.226;2024-03-29T01:07:40;98915.19;;;8.40;100.00
22653;BME280;11493;43.344;26.226;2024-03-29T01:10:07;98910.31;;;8.37;100.00
22653;BME280;11493;43.344;26.226;2024-03-29T01:12:35;98921.91;;;8.34;100.00
22653;BME280;11493;43.344;26.226;2024-03-29T01:15:02;98918.03;;;8.35;100.00
22653;BME280;11493;43.344;26.226;2024-03-29T01:17:29;98918.84;;;8.36;100.00
22653;BME280;11493;43.344;26.226;2024-03-29T01:19:55;98912.16;;;8.28;100.00
22653;BME280;11493;43.344;26.226;2024-03-29T01:22:21;98916.63;;;8.24;100.00
22653;BME280;11493;43.344;26.226;2024-03-29T01:24:46;98924.72;;;8.29;100.00
22653;BME280;11493;43.344;26.226;2024-03-29T01:27:13;98929.81;;;8.22;100.00
22653;BME280;11493;43.344;26.226;2024-03-29T01:29:39;98920.19;;;8.24;100.00
22653;BME280;11493;43.344;26.226;2024-03-29T01:32:05;98902.41;;;8.22;100.00
22653;BME280;11493;43.344;26.226;2024-03-29T01:34:31;98921.69;;;8.31;100.00
22653;BME280;11493;43.344;26.226;2024-03-29T01:36:58;98922.72;;;8.21;100.00
22653;BME280;11493;43.344;26.226;2024-03-29T01:39:24;98919.47;;;8.19;100.00
22653;BME280;11493;43.344;26.226;2024-03-29T01:41:57;98923.22;;;8.23;100.00
22653;BME280;11493;43.344;26.226;2024-03-29T01:44:23;98928.22;;;8.21;100.00
22653;BME280;11493;43.344;26.226;2024-03-29T01:46:49;98928.00;;;8.17;100.00
22653;BME280;11493;43.344;26.226;2024-03-29T01:49:16;98932.88;;;8.20;100.00
22653;BME280;11493;43.344;26.226;2024-03-29T01:51:42;98942.06;;;8.16;100.00
22653;BME280;11493;43.344;26.226;2024-03-29T01:54:10;98939.63;;;8.14;100.00
22653;BME280;11493;43.344;26.226;2024-03-29T01:56:37;98953.19;;;8.19;100.00
22653;BME280;11493;43.344;26.226;2024-03-29T01:59:10;98945.09;;;8.14;100.00
22653;BME280;11493;43.344;26.226;2024-03-29T02:01:40;98949.72;;;8.28;100.00
22653;BME280;11493;43.344;26.226;2024-03-29T02:04:06;98949.00;;;8.22;100.00
22653;BME280;11493;43.344;26.226;2024-03-29T02:06:32;98937.69;;;8.15;100.00
22653;BME280;11493;43.344;26.226;2024-03-29T02:08:58;98948.91;;;8.27;100.00
22653;BME280;11493;43.344;26.226;2024-03-29T02:11:24;98965.22;;;8.32;100.00
22653;BME280;11493;43.344;26.226;2024-03-29T02:13:50;98969.00;;;8.22;100.00
22653;BME280;11493;43.344;26.226;2024-03-29T02:16:17;98955.88;;;8.11;100.00
22653;BME280;11493;43.344;26.226;2024-03-29T02:18:43;98959.03;;;8.04;100.00
22653;BME280;11493;43.344;26.226;2024-03-29T02:21:09;98960.66;;;8.05;100.00
22653;BME280;11493;43.344;26.226;2024-03-29T02:23:37;98981.84;;;8.13;100.00
22653;BME280;11493;43.344;26.226;2024-03-29T02:26:06;98972.34;;;8.19;100.00
22653;BME280;11493;43.344;26.226;2024-03-29T02:28:32;98977.94;;;8.28;100.00
22653;BME280;11493;43.344;26.226;2024-03-29T02:30:58;98980.28;;;8.21;100.00
22653;BME280;11493;43.344;26.226;2024-03-29T02:33:24;98986.50;;;8.13;100.00
22653;BME280;11493;43.344;26.226;2024-03-29T02:35:51;98987.31;;;8.13;100.00
22653;BME280;11493;43.344;26.226;2024-03-29T02:38:18;99010.56;;;8.16;100.00
22653;BME280;11493;43.344;26.226;2024-03-29T02:40:44;98992.59;;;8.10;100.00
22653;BME280;11493;43.344;26.226;2024-03-29T02:43:11;98996.97;;;8.11;100.00
22653;BME280;11493;43.344;26.226;2024-03-29T02:45:36;98977.00;;;7.97;100.00
22653;BME280;11493;43.344;26.226;2024-03-29T02:48:02;98993.41;;;8.10;100.00
22653;BME280;11493;43.344;26.226;2024-03-29T02:50:28;98999.25;;;8.17;100.00
22653;BME280;11493;43.344;26.226;2024-03-29T02:52:54;98985.69;;;8.12;100.00
22653;BME280;11493;43.344;26.226;2024-03-29T02:55:20;98981.25;;;8.03;100.00
22653;BME280;11493;43.344;26.226;2024-03-29T02:57:46;99003.38;;;8.06;100.00
22653;BME280;11493;43.344;26.226;2024-03-29T03:00:16;99017.38;;;8.05;100.00
22653;BME280;11493;43.344;26.226;2024-03-29T03:02:42;98998.09;;;8.10;100.00
22653;BME280;11493;43.344;26.226;2024-03-29T03:05:08;99015.53;;;8.14;100.00
22653;BME280;11493;43.344;26.226;2024-03-29T03:07:35;99016.75;;;8.08;100.00
22653;BME280;11493;43.344;26.226;2024-03-29T03:10:20;99018.50;;;8.04;100.00
22653;BME280;11493;43.344;26.226;2024-03-29T03:13:04;99014.72;;;8.00;100.00
22653;BME280;11493;43.344;26.226;2024-03-29T03:15:31;99022.44;;;7.98;100.00
22653;BME280;11493;43.344;26.226;2024-03-29T03:17:59;99028.94;;;8.02;100.00
22653;BME280;11493;43.344;26.226;2024-03-29T03:20:25;99034.41;;;8.02;100.00
22653;BME280;11493;43.344;26.226;2024-03-29T03:22:56;99035.44;;;8.06;100.00
22653;BME280;11493;43.344;26.226;2024-03-29T03:25:24;99039.19;;;7.96;100.00
22653;BME280;11493;43.344;26.226;2024-03-29T03:27:50;99055.13;;;7.94;100.00
22653;BME280;11493;43.344;26.226;2024-03-29T03:30:16;99058.75;;;7.89;100.00
22653;BME280;11493;43.344;26.226;2024-03-29T03:32:43;99058.34;;;7.82;100.00
22653;BME280;11493;43.344;26.226;2024-03-29T03:35:09;99065.75;;;7.68;100.00
22653;BME280;11493;43.344;26.226;2024-03-29T03:37:34;99074.66;;;7.60;100.00
22653;BME280;11493;43.344;26.226;2024-03-29T03:40:01;99067.94;;;7.52;100.00
22653;BME280;11493;43.344;26.226;2024-03-29T03:42:27;99075.34;;;7.52;100.00
22653;BME280;11493;43.344;26.226;2024-03-29T03:44:53;99083.56;;;7.52;100.00
22653;BME280;11493;43.344;26.226;2024-03-29T03:47:19;99084.16;;;7.49;100.00
22653;BME280;11493;43.344;26.226;2024-03-29T03:49:45;99092.38;;;7.49;100.00
22653;BME280;11493;43.344;26.226;2024-03-29T03:52:12;99090.13;;;7.51;100.00
22653;BME280;11493;43.344;26.226;2024-03-29T03:54:38;99105.53;;;7.47;100.00
22653;BME280;11493;43.344;26.226;2024-03-29T03:57:04;99110.78;;;7.43;100.00
22653;BME280;11493;43.344;26.226;2024-03-29T03:59:31;99095.59;;;7.37;100.00
22653;BME280;11493;43.344;26.226;2024-03-29T04:01:58;99117.09;;;7.44;100.00
22653;BME280;11493;43.344;26.226;2024-03-29T04:04:24;99124.19;;;7.45;100.00
22653;BME280;11493;43.344;26.226;2024-03-29T04:06:51;99125.72;;;7.51;100.00
22653;BME280;11493;43.344;26.226;2024-03-29T04:09:21;99140.00;;;7.48;100.00
22653;BME280;11493;43.344;26.226;2024-03-29T04:11:46;99129.16;;;7.43;100.00
22653;BME280;11493;43.344;26.226;2024-03-29T04:14:12;99148.16;;;7.53;100.00
22653;BME280;11493;43.344;26.226;2024-03-29T04:16:38;99146.00;;;7.50;100.00
22653;BME280;11493;43.344;26.226;2024-03-29T04:19:05;99159.53;;;7.60;100.00
22653;BME280;11493;43.344;26.226;2024-03-29T04:21:31;99142.66;;;7.53;100.00
22653;BME280;11493;43.344;26.226;2024-03-29T04:23:57;99161.16;;;7.61;100.00
22653;BME280;11493;43.344;26.226;2024-03-29T04:26:23;99162.84;;;7.57;100.00
22653;BME280;11493;43.344;26.226;2024-03-29T04:28:49;99166.63;;;7.61;100.00
22653;BME280;11493;43.344;26.226;2024-03-29T04:31:15;99164.41;;;7.63;100.00
22653;BME280;11493;43.344;26.226;2024-03-29T04:33:41;99171.72;;;7.68;100.00
22653;BME280;11493;43.344;26.226;2024-03-29T04:36:07;99179.03;;;7.72;100.00
22653;BME280;11493;43.344;26.226;2024-03-29T04:38:34;99192.47;;;7.87;100.00
22653;BME280;11493;43.344;26.226;2024-03-29T04:41:00;99199.72;;;7.97;100.00
22653;BME280;11493;43.344;26.226;2024-03-29T04:43:27;99190.59;;;8.02;100.00
22653;BME280;11493;43.344;26.226;2024-03-29T04:46:13;99187.66;;;8.12;100.00
22653;BME280;11493;43.344;26.226;2024-03-29T04:48:41;99199.53;;;8.21;100.00
22653;BME280;11493;43.344;26.226;2024-03-29T04:51:09;99188.16;;;8.28;100.00
22653;BME280;11493;43.344;26.226;2024-03-29T04:53:38;99214.50;;;8.42;100.00
22653;BME280;11493;43.344;26.226;2024-03-29T04:56:05;99221.31;;;8.45;100.00
22653;BME280;11493;43.344;26.226;2024-03-29T04:58:31;99230.16;;;8.55;100.00
22653;BME280;11493;43.344;26.226;2024-03-29T05:00:58;99230.59;;;8.63;100.00
22653;BME280;11493;43.344;26.226;2024-03-29T05:03:25;99232.22;;;8.77;100.00
22653;BME280;11493;43.344;26.226;2024-03-29T05:05:51;99251.28;;;8.96;100.00
22653;BME280;11493;43.344;26.226;2024-03-29T05:08:18;99252.09;;;9.10;100.00
22653;BME280;11493;43.344;26.226;2024-03-29T05:10:46;99244.84;;;9.28;100.00
22653;BME280;11493;43.344;26.226;2024-03-29T05:13:13;99247.44;;;9.47;100.00
22653;BME280;11493;43.344;26.226;2024-03-29T05:15:40;99231.25;;;9.59;100.00
22653;BME280;11493;43.344;26.226;2024-03-29T05:18:06;99254.59;;;9.93;100.00
22653;BME280;11493;43.344;26.226;2024-03-29T05:20:33;99256.72;;;10.18;100.00
22653;BME280;11493;43.344;26.226;2024-03-29T05:22:59;99253.09;;;10.31;100.00
22653;BME280;11493;43.344;26.226;2024-03-29T05:25:26;99259.16;;;10.50;100.00
22653;BME280;11493;43.344;26.226;2024-03-29T05:27:53;99259.41;;;10.63;100.00
22653;BME280;11493;43.344;26.226;2024-03-29T05:30:20;99259.66;;;10.83;100.00
22653;BME280;11493;43.344;26.226;2024-03-29T05:32:47;99262.16;;;11.02;100.00
22653;BME280;11493;43.344;26.226;2024-03-29T05:35:13;99270.25;;;11.16;100.00
22653;BME280;11493;43.344;26.226;2024-03-29T05:37:39;99273.69;;;11.30;100.00
22653;BME280;11493;43.344;26.226;2024-03-29T05:40:06;99268.06;;;11.44;100.00
22653;BME280;11493;43.344;26.226;2024-03-29T05:42:34;99247.63;;;11.45;100.00
22653;BME280;11493;43.344;26.226;2024-03-29T05:45:04;99264.84;;;11.59;100.00
22653;BME280;11493;43.344;26.226;2024-03-29T05:47:31;99264.19;;;11.62;100.00
22653;BME280;11493;43.344;26.226;2024-03-29T05:49:57;99273.75;;;11.73;100.00
22653;BME280;11493;43.344;26.226;2024-03-29T05:52:24;99269.09;;;11.82;100.00
22653;BME280;11493;43.344;26.226;2024-03-29T05:55:00;99283.00;;;11.95;100.00
22653;BME280;11493;43.344;26.226;2024-03-29T05:57:33;99290.16;;;12.04;100.00
22653;BME280;11493;43.344;26.226;2024-03-29T06:00:00;99283.31;;;12.19;100.00
22653;BME280;11493;43.344;26.226;2024-03-29T06:02:27;99273.06;;;12.37;100.00
22653;BME280;11493;43.344;26.226;2024-03-29T06:04:54;99270.91;;;12.60;98.47
22653;BME280;11493;43.344;26.226;2024-03-29T06:07:20;99274.06;;;12.79;98.43
22653;BME280;11493;43.344;26.226;2024-03-29T06:09:46;99272.53;;;12.99;98.24
22653;BME280;11493;43.344;26.226;2024-03-29T06:12:12;99279.75;;;13.21;98.35
22653;BME280;11493;43.344;26.226;2024-03-29T06:14:39;99277.34;;;13.40;98.19
22653;BME280;11493;43.344;26.226;2024-03-29T06:17:24;99289.91;;;13.58;95.39
22653;BME280;11493;43.344;26.226;2024-03-29T06:19:52;99293.16;;;13.81;94.14
22653;BME280;11493;43.344;26.226;2024-03-29T06:22:24;99279.63;;;13.88;93.98
22653;BME280;11493;43.344;26.226;2024-03-29T06:24:51;99289.75;;;14.17;93.53
22653;BME280;11493;43.344;26.226;2024-03-29T06:27:20;99280.81;;;14.32;92.58
22653;BME280;11493;43.344;26.226;2024-03-29T06:29:49;99287.63;;;14.56;91.93
22653;BME280;11493;43.344;26.226;2024-03-29T06:32:16;99285.13;;;14.75;89.41
22653;BME280;11493;43.344;26.226;2024-03-29T06:34:44;99282.34;;;14.87;88.42
22653;BME280;11493;43.344;26.226;2024-03-29T06:37:12;99295.19;;;15.16;86.26
22653;BME280;11493;43.344;26.226;2024-03-29T06:39:39;99297.16;;;15.40;86.57
22653;BME280;11493;43.344;26.226;2024-03-29T06:42:04;99295.53;;;15.63;86.13
22653;BME280;11493;43.344;26.226;2024-03-29T06:44:34;99303.00;;;15.87;85.14
22653;BME280;11493;43.344;26.226;2024-03-29T06:47:00;99301.22;;;16.07;83.93
22653;BME280;11493;43.344;26.226;2024-03-29T06:49:26;99301.81;;;16.28;81.72
22653;BME280;11493;43.344;26.226;2024-03-29T06:51:52;99313.06;;;16.48;81.67
22653;BME280;11493;43.344;26.226;2024-03-29T06:54:19;99292.75;;;16.59;80.95
22653;BME280;11493;43.344;26.226;2024-03-29T06:56:48;99304.09;;;16.82;80.87
22653;BME280;11493;43.344;26.226;2024-03-29T06:59:15;99298.03;;;16.92;79.17
22653;BME280;11493;43.344;26.226;2024-03-29T07:01:41;99303.28;;;17.13;78.20
22653;BME280;11493;43.344;26.226;2024-03-29T07:04:07;99312.00;;;17.27;76.30
22653;BME280;11493;43.344;26.226;2024-03-29T07:06:33;99309.72;;;17.49;71.94
22653;BME280;11493;43.344;26.226;2024-03-29T07:08:59;99319.41;;;17.55;67.17
22653;BME280;11493;43.344;26.226;2024-03-29T07:11:25;99316.50;;;17.83;66.68
22653;BME280;11493;43.344;26.226;2024-03-29T07:13:51;99318.25;;;17.91;63.40
22653;BME280;11493;43.344;26.226;2024-03-29T07:16:18;99314.19;;;18.23;62.46
22653;BME280;11493;43.344;26.226;2024-03-29T07:18:44;99316.03;;;18.16;59.70
22653;BME280;11493;43.344;26.226;2024-03-29T07:21:10;99311.19;;;18.32;57.14
22653;BME280;11493;43.344;26.226;2024-03-29T07:23:36;99319.63;;;18.55;57.03
22653;BME280;11493;43.344;26.226;2024-03-29T07:26:03;99322.84;;;18.57;55.86
22653;BME280;11493;43.344;26.226;2024-03-29T07:28:32;99320.78;;;18.73;56.32
22653;BME280;11493;43.344;26.226;2024-03-29T07:31:05;99320.59;;;18.85;56.39
22653;BME280;11493;43.344;26.226;2024-03-29T07:33:32;99329.97;;;18.96;56.00
22653;BME280;11493;43.344;26.226;2024-03-29T07:35:58;99328.19;;;19.08;55.26
22653;BME280;11493;43.344;26.226;2024-03-29T07:38:28;99324.78;;;19.18;54.71
22653;BME280;11493;43.344;26.226;2024-03-29T07:40:55;99321.78;;;19.30;55.07
22653;BME280;11493;43.344;26.226;2024-03-29T07:43:21;99330.81;;;19.46;54.60
22653;BME280;11493;43.344;26.226;2024-03-29T07:45:48;99314.31;;;19.37;54.02
22653;BME280;11493;43.344;26.226;2024-03-29T07:48:16;99323.56;;;19.42;51.85
22653;BME280;11493;43.344;26.226;2024-03-29T07:50:43;99335.84;;;19.60;53.15
22653;BME280;11493;43.344;26.226;2024-03-29T07:53:09;99332.41;;;19.70;52.61
22653;BME280;11493;43.344;26.226;2024-03-29T07:55:38;99326.28;;;19.87;52.27
22653;BME280;11493;43.344;26.226;2024-03-29T07:58:06;99321.88;;;20.16;51.86
22653;BME280;11493;43.344;26.226;2024-03-29T08:00:34;99325.56;;;20.24;50.79
22653;BME280;11493;43.344;26.226;2024-03-29T08:03:01;99328.84;;;20.29;49.51
22653;BME280;11493;43.344;26.226;2024-03-29T08:05:27;99316.84;;;20.29;50.76
22653;BME280;11493;43.344;26.226;2024-03-29T08:07:54;99331.50;;;20.49;50.80
22653;BME280;11493;43.344;26.226;2024-03-29T08:10:20;99331.66;;;20.63;48.36
22653;BME280;11493;43.344;26.226;2024-03-29T08:12:46;99347.59;;;20.59;48.12
22653;BME280;11493;43.344;26.226;2024-03-29T08:15:15;99326.75;;;20.53;47.94
22653;BME280;11493;43.344;26.226;2024-03-29T08:17:41;99334.50;;;20.66;50.68
22653;BME280;11493;43.344;26.226;2024-03-29T08:20:07;99312.25;;;20.81;47.77
22653;BME280;11493;43.344;26.226;2024-03-29T08:22:33;99334.22;;;20.75;47.45
22653;BME280;11493;43.344;26.226;2024-03-29T08:25:00;99322.34;;;20.89;48.39
22653;BME280;11493;43.344;26.226;2024-03-29T08:27:27;99335.25;;;21.00;48.61
22653;BME280;11493;43.344;26.226;2024-03-29T08:29:54;99328.34;;;20.91;46.86
22653;BME280;11493;43.344;26.226;2024-03-29T08:32:20;99329.38;;;20.72;45.96
22653;BME280;11493;43.344;26.226;2024-03-29T08:34:46;99339.03;;;20.78;47.81
22653;BME280;11493;43.344;26.226;2024-03-29T08:37:11;99337.47;;;20.84;48.76
22653;BME280;11493;43.344;26.226;2024-03-29T08:39:37;99344.56;;;21.12;47.96
22653;BME280;11493;43.344;26.226;2024-03-29T08:42:04;99328.25;;;21.21;48.00
22653;BME280;11493;43.344;26.226;2024-03-29T08:44:32;99339.66;;;21.02;47.57
22653;BME280;11493;43.344;26.226;2024-03-29T08:46:58;99337.19;;;20.96;47.06
22653;BME280;11493;43.344;26.226;2024-03-29T08:49:29;99332.44;;;21.00;48.43
22653;BME280;11493;43.344;26.226;2024-03-29T08:51:58;99336.56;;;21.14;48.45
22653;BME280;11493;43.344;26.226;2024-03-29T08:54:26;99334.81;;;21.36;47.58
22653;BME280;11493;43.344;26.226;2024-03-29T08:56:53;99333.19;;;21.35;48.09
22653;BME280;11493;43.344;26.226;2024-03-29T08:59:19;99330.53;;;21.56;47.29
22653;BME280;11493;43.344;26.226;2024-03-29T09:01:46;99339.00;;;21.63;47.89
22653;BME280;11493;43.344;26.226;2024-03-29T09:04:15;99347.78;;;21.61;46.46
22653;BME280;11493;43.344;26.226;2024-03-29T09:06:42;99338.66;;;21.68;50.26
22653;BME280;11493;43.344;26.226;2024-03-29T09:09:12;99339.47;;;21.72;46.31
22653;BME280;11493;43.344;26.226;2024-03-29T09:11:39;99337.44;;;21.69;47.06
22653;BME280;11493;43.344;26.226;2024-03-29T09:14:05;99346.31;;;21.78;49.05
22653;BME280;11493;43.344;26.226;2024-03-29T09:16:35;99346.81;;;21.91;47.87
22653;BME280;11493;43.344;26.226;2024-03-29T09:19:02;99361.47;;;21.70;46.16
22653;BME280;11493;43.344;26.226;2024-03-29T09:21:28;99357.50;;;21.75;46.52
22653;BME280;11493;43.344;26.226;2024-03-29T09:23:54;99367.03;;;21.67;46.40
22653;BME280;11493;43.344;26.226;2024-03-29T09:26:20;99361.53;;;21.81;47.20
22653;BME280;11493;43.344;26.226;2024-03-29T09:28:46;99345.03;;;21.69;45.65
22653;BME280;11493;43.344;26.226;2024-03-29T09:31:12;99348.16;;;21.56;46.36
22653;BME280;11493;43.344;26.226;2024-03-29T09:33:38;99355.84;;;21.70;47.08
22653;BME280;11493;43.344;26.226;2024-03-29T09:36:04;99349.09;;;21.75;48.45
22653;BME280;11493;43.344;26.226;2024-03-29T09:38:30;99343.19;;;21.90;47.91
22653;BME280;11493;43.344;26.226;2024-03-29T09:41:16;99347.13;;;21.79;46.74
22653;BME280;11493;43.344;26.226;2024-03-29T09:43:43;99336.66;;;21.72;47.05
22653;BME280;11493;43.344;26.226;2024-03-29T09:46:15;99350.38;;;21.88;46.97
22653;BME280;11493;43.344;26.226;2024-03-29T09:48:43;99339.88;;;21.71;47.97
22653;BME280;11493;43.344;26.226;2024-03-29T09:51:11;99339.19;;;21.88;45.80
22653;BME280;11493;43.344;26.226;2024-03-29T09:53:42;99330.38;;;21.86;46.64
22653;BME280;11493;43.344;26.226;2024-03-29T09:56:08;99325.50;;;21.76;46.62
22653;BME280;11493;43.344;26.226;2024-03-29T09:58:36;99338.38;;;21.87;48.53
22653;BME280;11493;43.344;26.226;2024-03-29T10:01:04;99341.63;;;21.93;46.26
22653;BME280;11493;43.344;26.226;2024-03-29T10:03:31;99335.25;;;22.00;45.12
22653;BME280;11493;43.344;26.226;2024-03-29T10:05:59;99319.19;;;21.93;46.99
22653;BME280;11493;43.344;26.226;2024-03-29T10:08:30;99322.00;;;21.93;46.46
22653;BME280;11493;43.344;26.226;2024-03-29T10:10:57;99308.81;;;21.97;44.05
22653;BME280;11493;43.344;26.226;2024-03-29T10:13:24;99306.50;;;22.06;44.16
22653;BME280;11493;43.344;26.226;2024-03-29T10:15:54;99300.97;;;22.20;45.45
22653;BME280;11493;43.344;26.226;2024-03-29T10:18:24;99306.63;;;22.27;44.33
22653;BME280;11493;43.344;26.226;2024-03-29T10:21:07;99288.19;;;22.34;44.28
22653;BME280;11493;43.344;26.226;2024-03-29T10:23:34;99290.66;;;22.53;43.70
22653;BME280;11493;43.344;26.226;2024-03-29T10:26:02;99303.09;;;22.59;43.95
22653;BME280;11493;43.344;26.226;2024-03-29T10:28:31;99291.88;;;22.59;41.38
22653;BME280;11493;43.344;26.226;2024-03-29T10:31:02;99304.69;;;22.56;41.75
22653;BME280;11493;43.344;26.226;2024-03-29T10:33:32;99303.91;;;22.56;41.92
22653;BME280;11493;43.344;26.226;2024-03-29T10:36:03;99297.50;;;22.59;42.96
22653;BME280;11493;43.344;26.226;2024-03-29T10:38:30;99291.50;;;22.64;41.65
22653;BME280;11493;43.344;26.226;2024-03-29T10:40:56;99286.69;;;22.61;42.39
22653;BME280;11493;43.344;26.226;2024-03-29T10:43:24;99293.09;;;22.65;42.92
22653;BME280;11493;43.344;26.226;2024-03-29T10:45:50;99289.53;;;22.75;42.45
22653;BME280;11493;43.344;26.226;2024-03-29T10:48:21;99281.97;;;22.86;44.14
22653;BME280;11493;43.344;26.226;2024-03-29T10:50:48;99292.41;;;22.93;41.98
22653;BME280;11493;43.344;26.226;2024-03-29T10:53:16;99292.72;;;22.70;43.20
22653;BME280;11493;43.344;26.226;2024-03-29T10:55:43;99295.53;;;22.74;43.36
22653;BME280;11493;43.344;26.226;2024-03-29T10:58:11;99287.56;;;22.83;42.09
22653;BME280;11493;43.344;26.226;2024-03-29T11:00:39;99277.53;;;22.82;40.88
22653;BME280;11493;43.344;26.226;2024-03-29T11:05:46;99298.41;;;23.06;40.74
22653;BME280;11493;43.344;26.226;2024-03-29T11:08:17;99301.19;;;23.06;39.93
22653;BME280;11493;43.344;26.226;2024-03-29T11:10:47;99316.84;;;23.07;40.11
22653;BME280;11493;43.344;26.226;2024-03-29T11:13:19;99305.59;;;23.03;40.52
22653;BME280;11493;43.344;26.226;2024-03-29T11:15:50;99291.59;;;22.89;41.11
22653;BME280;11493;43.344;26.226;2024-03-29T11:18:17;99301.16;;;22.77;39.62
22653;BME280;11493;43.344;26.226;2024-03-29T11:20:49;99303.59;;;22.79;39.13
22653;BME280;11493;43.344;26.226;2024-03-29T11:23:19;99306.44;;;23.00;40.29
22653;BME280;11493;43.344;26.226;2024-03-29T11:25:49;99306.44;;;22.97;39.47
22653;BME280;11493;43.344;26.226;2024-03-29T11:28:29;99296.41;;;22.99;40.77
22653;BME280;11493;43.344;26.226;2024-03-29T11:31:04;99303.59;;;22.89;39.85
22653;BME280;11493;43.344;26.226;2024-03-29T11:33:52;99309.63;;;23.09;40.99
22653;BME280;11493;43.344;26.226;2024-03-29T11:36:20;99299.63;;;23.01;40.81
22653;BME280;11493;43.344;26.226;2024-03-29T11:38:55;99307.22;;;23.04;41.67
22653;BME280;11493;43.344;26.226;2024-03-29T11:41:23;99293.19;;;23.04;38.51
22653;BME280;11493;43.344;26.226;2024-03-29T11:43:50;99296.00;;;22.90;38.92
22653;BME280;11493;43.344;26.226;2024-03-29T11:46:17;99293.97;;;22.83;40.52
22653;BME280;11493;43.344;26.226;2024-03-29T11:48:44;99296.38;;;23.03;41.16
22653;BME280;11493;43.344;26.226;2024-03-29T11:51:15;99284.78;;;23.22;41.02
22653;BME280;11493;43.344;26.226;2024-03-29T11:53:42;99279.16;;;23.29;39.42
22653;BME280;11493;43.344;26.226;2024-03-29T11:56:08;99289.59;;;23.25;39.78
22653;BME280;11493;43.344;26.226;2024-03-29T11:58:34;99300.03;;;23.35;39.62
22653;BME280;11493;43.344;26.226;2024-03-29T12:01:01;99294.38;;;23.10;38.09
22653;BME280;11493;43.344;26.226;2024-03-29T12:03:29;99294.81;;;23.30;38.40
22653;BME280;11493;43.344;26.226;2024-03-29T12:05:57;99301.22;;;23.31;37.53
22653;BME280;11493;43.344;26.226;2024-03-29T12:08:25;99293.59;;;23.13;37.86
22653;BME280;11493;43.344;26.226;2024-03-29T12:10:54;99306.84;;;23.20;38.05
22653;BME280;11493;43.344;26.226;2024-03-29T12:13:20;99302.41;;;23.05;37.33
22653;BME280;11493;43.344;26.226;2024-03-29T12:15:46;99303.22;;;23.23;39.59
22653;BME280;11493;43.344;26.226;2024-03-29T12:18:12;99292.00;;;23.30;38.92
22653;BME280;11493;43.344;26.226;2024-03-29T12:20:42;99304.03;;;23.41;38.67
22653;BME280;11493;43.344;26.226;2024-03-29T12:23:12;99289.59;;;23.21;38.89
22653;BME280;11493;43.344;26.226;2024-03-29T12:25:41;99302.81;;;23.24;38.78
22653;BME280;11493;43.344;26.226;2024-03-29T12:28:09;99294.81;;;23.23;39.04
22653;BME280;11493;43.344;26.226;2024-03-29T12:30:36;99290.00;;;23.20;37.71
22653;BME280;11493;43.344;26.226;2024-03-29T12:33:16;99298.81;;;23.36;37.78
22653;BME280;11493;43.344;26.226;2024-03-29T12:35:44;99295.59;;;23.34;37.90
22653;BME280;11493;43.344;26.226;2024-03-29T12:38:14;99292.00;;;23.30;37.67
22653;BME280;11493;43.344;26.226;2024-03-29T12:40:44;99281.97;;;23.22;37.64
22653;BME280;11493;43.344;26.226;2024-03-29T12:43:14;99283.56;;;23.26;38.08
22653;BME280;11493;43.344;26.226;2024-03-29T12:45:43;99279.97;;;23.40;38.05
22653;BME280;11493;43.344;26.226;2024-03-29T12:48:14;99281.16;;;23.43;37.69
22653;BME280;11493;43.344;26.226;2024-03-29T12:50:41;99280.38;;;23.35;36.94
22653;BME280;11493;43.344;26.226;2024-03-29T12:53:10;99273.94;;;23.35;36.98
22653;BME280;11493;43.344;26.226;2024-03-29T12:55:37;99282.78;;;23.44;39.33